createdAt,value
2023-03-07T00:01:58.684Z,8.23
2023-03-07T00:04:27.898Z,7.30
2023-03-07T00:06:58.047Z,6.90
2023-03-07T00:09:27.299Z,7.80
2023-03-07T00:11:57.698Z,7.40
2023-03-07T00:14:26.746Z,8.05
2023-03-07T00:16:55.704Z,8.82
2023-03-07T00:19:24.653Z,8.85
2023-03-07T00:21:53.670Z,7.95
2023-03-07T00:24:22.684Z,7.95
2023-03-07T00:26:51.772Z,9.35
2023-03-07T00:29:22.615Z,7.30
2023-03-07T00:36:50.941Z,10.05
2023-03-07T00:39:19.883Z,8.70
2023-03-07T00:41:48.939Z,8.95
2023-03-07T00:44:17.994Z,10.15
2023-03-07T00:46:48.722Z,7.78
2023-03-07T00:49:17.721Z,8.20
2023-03-07T00:51:46.712Z,10.00
2023-03-07T00:54:16.318Z,9.10
2023-03-07T00:56:45.458Z,9.85
2023-03-07T00:59:14.921Z,9.23
2023-03-07T01:01:44.349Z,9.27
2023-03-07T01:04:15.144Z,8.35
2023-03-07T01:06:44.182Z,9.80
2023-03-07T01:09:13.397Z,10.25
2023-03-07T01:11:42.572Z,10.93
2023-03-07T01:14:12.590Z,10.40
2023-03-07T01:16:41.761Z,9.95
2023-03-07T01:19:14.022Z,11.93
2023-03-07T01:21:44.381Z,11.98
2023-03-07T01:24:16.260Z,10.32
2023-03-07T01:26:45.748Z,10.48
2023-03-07T01:29:14.976Z,11.07
2023-03-07T01:31:44.100Z,11.27
2023-03-07T01:34:14.697Z,9.98
2023-03-07T01:36:44.374Z,11.68
2023-03-07T01:39:16.858Z,9.55
2023-03-07T01:41:56.908Z,12.05
2023-03-07T01:44:31.031Z,10.18
2023-03-07T01:47:01.391Z,10.43
2023-03-07T01:49:46.393Z,11.48
2023-03-07T01:52:21.939Z,11.23
2023-03-07T01:54:59.726Z,11.18
2023-03-07T01:57:34.034Z,11.82
2023-03-07T02:00:08.736Z,10.13
2023-03-07T02:02:45.103Z,11.50
2023-03-07T02:05:24.128Z,14.32
2023-03-07T02:07:55.426Z,13.13
2023-03-07T02:10:28.143Z,10.75
2023-03-07T02:12:57.311Z,12.55
2023-03-07T02:15:26.861Z,12.20
2023-03-07T02:17:56.270Z,13.85
2023-03-07T02:20:34.384Z,13.50
2023-03-07T02:24:01.903Z,13.48
2023-03-07T02:26:44.254Z,13.43
2023-03-07T02:29:14.586Z,14.20
2023-03-07T02:31:47.170Z,13.23
2023-03-07T02:34:21.339Z,15.25
2023-03-07T02:36:56.395Z,16.25
2023-03-07T02:39:30.171Z,14.43
2023-03-07T02:42:07.782Z,15.82
2023-03-07T02:44:46.888Z,15.07
2023-03-07T02:47:18.651Z,16.20
2023-03-07T02:49:47.628Z,19.33
2023-03-07T02:52:16.568Z,16.08
2023-03-07T02:54:45.872Z,19.77
2023-03-07T03:05:46.310Z,20.48
2023-03-07T03:08:15.600Z,20.20
2023-03-07T03:10:44.689Z,15.77
2023-03-07T03:13:15.210Z,18.60
2023-03-07T03:15:45.124Z,19.38
2023-03-07T03:18:14.455Z,20.88
2023-03-07T03:20:43.726Z,17.20
2023-03-07T03:23:14.456Z,19.05
2023-03-07T03:25:43.541Z,17.20
2023-03-07T03:28:13.475Z,20.48
2023-03-07T03:30:42.444Z,19.52
2023-03-07T03:33:11.403Z,17.10
2023-03-07T03:35:43.690Z,19.75
2023-03-07T03:38:14.087Z,19.70
2023-03-07T03:40:43.048Z,18.80
2023-03-07T03:43:12.123Z,16.17
2023-03-07T03:45:41.298Z,19.33
2023-03-07T03:48:10.310Z,18.38
2023-03-07T03:50:39.473Z,18.27
2023-03-07T03:53:08.472Z,19.10
2023-03-07T03:55:38.938Z,17.98
2023-03-07T03:58:07.959Z,18.35
2023-03-07T04:00:36.865Z,18.00
2023-03-07T04:03:06.075Z,19.38
2023-03-07T04:05:35.856Z,16.95
2023-03-07T04:11:02.121Z,16.50
2023-03-07T04:13:31.407Z,17.38
2023-03-07T04:16:00.651Z,16.45
2023-03-07T04:18:30.162Z,19.05
2023-03-07T04:20:59.392Z,19.73
2023-03-07T04:23:28.905Z,18.30
2023-03-07T04:26:00.857Z,16.48
2023-03-07T04:28:43.987Z,16.15
2023-03-07T04:31:18.786Z,17.02
2023-03-07T04:33:48.488Z,16.70
2023-03-07T04:36:18.526Z,17.10
2023-03-07T04:38:48.913Z,17.30
2023-03-07T04:41:21.079Z,18.40
2023-03-07T04:43:53.563Z,16.58
2023-03-07T04:46:24.611Z,16.05
2023-03-07T04:48:53.719Z,15.25
2023-03-07T04:51:23.225Z,17.92
2023-03-07T04:53:52.779Z,17.45
2023-03-07T04:56:23.280Z,17.40
2023-03-07T04:58:52.389Z,15.25
2023-03-07T05:01:21.460Z,15.90
2023-03-07T05:03:51.215Z,18.10
2023-03-07T05:06:22.077Z,17.48
2023-03-07T05:08:53.107Z,15.07
2023-03-07T05:11:23.476Z,16.58
2023-03-07T05:13:54.033Z,15.63
2023-03-07T05:16:24.784Z,19.20
2023-03-07T05:18:53.778Z,14.38
2023-03-07T05:21:24.758Z,17.30
2023-03-07T05:23:53.768Z,16.75
2023-03-07T05:26:24.208Z,17.15
2023-03-07T05:28:53.086Z,16.58
2023-03-07T05:31:22.102Z,18.80
2023-03-07T05:33:51.218Z,16.20
2023-03-07T05:36:20.473Z,17.70
2023-03-07T05:38:49.478Z,16.60
2023-03-07T05:41:18.558Z,18.35
2023-03-07T05:43:49.343Z,17.98
2023-03-07T05:46:18.335Z,16.83
2023-03-07T05:48:47.399Z,17.88
2023-03-07T05:51:16.327Z,16.48
2023-03-07T05:53:46.592Z,15.10
2023-03-07T05:56:16.208Z,17.20
2023-03-07T05:58:45.318Z,17.60
2023-03-07T06:01:16.020Z,16.70
2023-03-07T06:03:45.338Z,15.77
2023-03-07T06:06:14.357Z,19.00
2023-03-07T06:08:44.111Z,21.08
2023-03-07T06:11:13.565Z,18.25
2023-03-07T06:13:42.647Z,18.98
2023-03-07T06:16:11.605Z,20.98
2023-03-07T06:18:44.618Z,23.13
2023-03-07T06:21:20.346Z,20.52
2023-03-07T06:23:49.494Z,18.98
2023-03-07T06:26:22.110Z,19.02
2023-03-07T06:28:54.396Z,19.75
2023-03-07T06:31:25.018Z,19.42
2023-03-07T06:33:57.514Z,19.27
2023-03-07T06:36:27.477Z,18.92
2023-03-07T06:39:00.516Z,18.77
2023-03-07T06:41:30.292Z,17.67
2023-03-07T06:44:01.809Z,17.50
2023-03-07T06:46:33.900Z,20.17
2023-03-07T06:49:09.196Z,20.15
2023-03-07T06:51:38.327Z,20.10
2023-03-07T06:54:11.525Z,18.42
2023-03-07T06:56:42.228Z,19.67
2023-03-07T06:59:12.438Z,18.80
2023-03-07T07:01:41.640Z,18.38
2023-03-07T07:04:13.072Z,18.58
2023-03-07T07:06:43.882Z,20.35
2023-03-07T07:09:14.814Z,18.25
2023-03-07T07:11:43.855Z,17.70
2023-03-07T07:14:14.733Z,17.35
2023-03-07T07:16:44.463Z,18.50
2023-03-07T07:19:14.896Z,18.55
2023-03-07T07:21:44.247Z,18.38
2023-03-07T07:24:15.055Z,16.85
2023-03-07T07:26:44.652Z,18.00
2023-03-07T07:29:13.917Z,17.15
2023-03-07T07:31:43.305Z,16.00
2023-03-07T07:34:14.252Z,16.17
2023-03-07T07:36:43.734Z,14.02
2023-03-07T07:39:15.377Z,15.65
2023-03-07T07:41:48.090Z,13.15
2023-03-07T07:44:18.804Z,15.90
2023-03-07T07:46:56.100Z,14.07
2023-03-07T07:49:26.621Z,15.45
2023-03-07T07:51:56.650Z,13.50
2023-03-07T07:54:26.106Z,14.05
2023-03-07T07:56:55.189Z,14.40
2023-03-07T07:59:24.377Z,14.02
2023-03-07T08:01:54.005Z,15.00
2023-03-07T08:04:22.985Z,12.93
2023-03-07T08:06:53.569Z,13.70
2023-03-07T08:09:22.478Z,12.60
2023-03-07T08:11:51.666Z,15.27
2023-03-07T08:14:20.597Z,14.00
2023-03-07T08:16:49.635Z,12.82
2023-03-07T08:19:18.639Z,12.70
2023-03-07T08:21:48.189Z,13.02
2023-03-07T08:24:18.637Z,12.85
2023-03-07T08:26:47.782Z,14.02
2023-03-07T08:29:16.784Z,12.68
2023-03-07T08:31:46.435Z,10.68
2023-03-07T08:34:15.536Z,12.52
2023-03-07T08:36:44.558Z,11.52
2023-03-07T08:39:13.939Z,12.70
2023-03-07T08:41:44.368Z,14.25
2023-03-07T08:44:13.365Z,14.10
2023-03-07T08:46:42.381Z,14.25
2023-03-07T08:49:11.482Z,12.73
2023-03-07T08:51:40.561Z,13.90
2023-03-07T08:54:09.601Z,12.20
2023-03-07T08:56:38.504Z,15.10
2023-03-07T08:59:09.717Z,14.15
2023-03-07T09:01:40.998Z,13.05
2023-03-07T09:04:10.228Z,14.80
2023-03-07T09:06:39.211Z,11.25
2023-03-07T09:09:08.348Z,11.65
2023-03-07T09:11:37.616Z,15.32
2023-03-07T09:14:08.021Z,11.45
2023-03-07T09:16:37.069Z,12.40
2023-03-07T09:19:06.149Z,12.45
2023-03-07T09:21:35.066Z,11.30
2023-03-07T09:24:17.331Z,10.20
2023-03-07T09:26:46.247Z,10.85
2023-03-07T09:29:16.968Z,10.65
2023-03-07T09:31:46.893Z,10.38
2023-03-07T09:34:15.908Z,9.18
2023-03-07T09:36:44.863Z,10.05
2023-03-07T09:39:14.761Z,10.30
2023-03-07T09:42:01.510Z,10.55
2023-03-07T09:44:58.246Z,8.57
2023-03-07T09:47:57.524Z,9.85
2023-03-07T09:50:35.918Z,8.32
2023-03-07T09:53:06.658Z,7.40
2023-03-07T09:55:35.947Z,8.52
2023-03-07T09:58:16.106Z,9.63
2023-03-07T10:00:59.511Z,9.05
2023-03-07T10:03:36.524Z,7.82
2023-03-07T10:06:13.572Z,6.78
2023-03-07T10:08:59.611Z,8.20
2023-03-07T10:11:44.574Z,7.70
2023-03-07T10:14:41.573Z,8.15
2023-03-07T10:17:20.257Z,6.63
2023-03-07T10:19:52.475Z,6.25
2023-03-07T10:22:31.204Z,5.95
2023-03-07T10:25:09.573Z,7.90
2023-03-07T10:27:39.833Z,7.97
2023-03-07T10:30:16.940Z,5.43
2023-03-07T10:32:49.071Z,5.72
2023-03-07T10:35:21.881Z,6.10
2023-03-07T10:37:53.087Z,5.15
2023-03-07T10:40:27.487Z,4.10
2023-03-07T10:42:59.445Z,4.65
2023-03-07T10:45:30.965Z,3.00
2023-03-07T10:48:07.281Z,3.10
2023-03-07T10:50:45.282Z,2.30
2023-03-07T10:53:25.265Z,2.72
2023-03-07T10:56:09.210Z,3.28
2023-03-07T10:58:38.212Z,2.60
2023-03-07T11:01:21.576Z,2.10
2023-03-07T11:03:58.580Z,2.17
2023-03-07T11:06:36.925Z,1.83
2023-03-07T11:09:19.073Z,2.92
2023-03-07T11:11:55.145Z,2.13
2023-03-07T11:14:25.047Z,2.90
2023-03-07T11:16:56.174Z,3.00
2023-03-07T11:19:34.260Z,2.95
2023-03-07T11:22:04.857Z,3.00
2023-03-07T11:24:38.596Z,3.10
2023-03-07T11:27:08.275Z,3.28
2023-03-07T11:29:37.256Z,2.70
2023-03-07T11:32:13.928Z,3.28
2023-03-07T11:34:50.903Z,2.58
2023-03-07T11:37:29.278Z,2.35
2023-03-07T11:40:19.730Z,2.30
2023-03-07T11:42:57.687Z,2.75
2023-03-07T11:45:35.267Z,2.65
2023-03-07T11:48:16.376Z,2.35
2023-03-07T11:50:55.178Z,2.50
2023-03-07T11:53:51.000Z,3.45
2023-03-07T11:56:32.123Z,2.30
2023-03-07T11:59:27.132Z,2.05
2023-03-07T12:01:58.580Z,1.83
2023-03-07T12:04:59.960Z,2.08
2023-03-07T12:07:49.467Z,1.77
2023-03-07T12:10:32.536Z,1.83
2023-03-07T12:13:12.665Z,2.03
2023-03-07T12:15:47.714Z,1.60
2023-03-07T12:18:46.402Z,1.40
2023-03-07T12:21:25.098Z,2.05
2023-03-07T12:24:01.007Z,2.22
2023-03-07T12:26:37.503Z,1.50
2023-03-07T12:29:14.545Z,1.80
2023-03-07T12:31:47.841Z,2.03
2023-03-07T12:34:22.885Z,1.00
2023-03-07T12:36:57.274Z,1.30
2023-03-07T12:39:34.209Z,1.50
2023-03-07T12:42:12.171Z,1.40
2023-03-07T12:44:45.606Z,1.90
2023-03-07T12:47:23.068Z,1.45
2023-03-07T12:49:58.149Z,1.35
2023-03-07T12:52:41.429Z,1.35
2023-03-07T12:55:25.151Z,1.50
2023-03-07T12:58:01.241Z,1.80
2023-03-07T13:00:30.556Z,2.33
2023-03-07T13:03:04.346Z,1.70
2023-03-07T13:05:35.238Z,1.88
2023-03-07T13:08:06.745Z,2.15
2023-03-07T13:10:37.511Z,2.03
2023-03-07T13:13:44.364Z,2.55
2023-03-07T13:16:31.974Z,3.35
2023-03-07T13:19:34.404Z,2.58
2023-03-07T13:22:03.507Z,2.70
2023-03-07T13:24:37.997Z,2.70
2023-03-07T13:27:17.207Z,2.88
2023-03-07T13:30:18.105Z,2.10
2023-03-07T13:33:27.128Z,3.33
2023-03-07T13:35:58.330Z,2.55
2023-03-07T13:38:33.517Z,2.53
2023-03-07T13:41:04.586Z,2.55
2023-03-07T13:43:51.158Z,2.45
2023-03-07T13:46:49.267Z,2.40
2023-03-07T13:49:39.703Z,2.95
2023-03-07T13:52:36.858Z,2.60
2023-03-07T13:55:20.856Z,1.73
2023-03-07T13:57:51.276Z,2.58
2023-03-07T14:00:37.533Z,1.60
2023-03-07T14:03:25.103Z,2.30
2023-03-07T14:05:55.700Z,2.50
2023-03-07T14:08:29.688Z,2.10
2023-03-07T14:10:58.692Z,1.45
2023-03-07T14:13:49.515Z,1.80
2023-03-07T14:16:47.536Z,2.42
2023-03-07T14:19:31.801Z,1.70
2023-03-07T14:22:05.783Z,1.35
2023-03-07T14:24:57.050Z,1.55
2023-03-07T14:27:26.057Z,1.52
2023-03-07T14:29:57.170Z,1.90
2023-03-07T14:32:30.083Z,1.80
2023-03-07T14:34:59.652Z,2.05
2023-03-07T14:37:30.202Z,1.75
2023-03-07T14:40:31.033Z,2.00
2023-03-07T14:43:18.231Z,1.88
2023-03-07T14:45:54.812Z,1.75
2023-03-07T14:48:48.525Z,1.33
2023-03-07T14:51:20.572Z,2.10
2023-03-07T14:53:49.961Z,1.98
2023-03-07T14:56:23.906Z,1.40
2023-03-07T14:58:56.081Z,2.97
2023-03-07T15:01:31.714Z,1.70
2023-03-07T15:04:02.843Z,2.20
2023-03-07T15:06:32.422Z,2.20
2023-03-07T15:09:05.335Z,2.17
2023-03-07T15:11:40.414Z,1.83
2023-03-07T15:14:14.246Z,1.38
2023-03-07T15:16:46.384Z,1.75
2023-03-07T15:19:25.631Z,2.80
2023-03-07T15:21:57.722Z,2.17
2023-03-07T15:24:31.319Z,2.20
2023-03-07T15:27:01.334Z,2.78
2023-03-07T15:29:33.012Z,2.33
2023-03-07T15:32:04.429Z,2.08
2023-03-07T15:34:36.807Z,2.08
2023-03-07T15:37:25.718Z,1.83
2023-03-07T15:40:01.127Z,2.17
2023-03-07T15:42:31.063Z,2.25
2023-03-07T15:45:02.137Z,2.60
2023-03-07T15:47:33.680Z,2.30
2023-03-07T15:50:07.404Z,2.38
2023-03-07T15:52:38.403Z,2.67
2023-03-07T15:55:17.689Z,2.83
2023-03-07T15:57:52.830Z,2.40
2023-03-07T16:00:26.286Z,2.60
2023-03-07T16:02:58.654Z,2.70
2023-03-07T16:05:39.113Z,1.90
2023-03-07T16:08:14.174Z,1.60
2023-03-07T16:10:49.856Z,2.67
2023-03-07T16:13:21.227Z,2.05
2023-03-07T16:16:04.430Z,2.70
2023-03-07T16:18:35.208Z,1.95
2023-03-07T16:21:05.761Z,2.08
2023-03-07T16:23:35.141Z,2.20
2023-03-07T16:26:06.144Z,2.00
2023-03-07T16:28:35.869Z,1.90
2023-03-07T16:31:04.865Z,2.72
2023-03-07T16:33:33.875Z,2.00
2023-03-07T16:36:04.220Z,2.78
2023-03-07T16:38:33.216Z,2.20
2023-03-07T16:41:04.478Z,2.25
2023-03-07T16:43:38.165Z,2.55
2023-03-07T16:46:13.036Z,2.13
2023-03-07T16:48:42.277Z,2.30
2023-03-07T16:51:17.256Z,2.25
2023-03-07T16:53:46.398Z,2.42
2023-03-07T16:56:26.258Z,2.50
2023-03-07T16:58:55.424Z,2.13
2023-03-07T17:01:24.414Z,2.03
2023-03-07T17:03:55.436Z,2.83
2023-03-07T17:06:38.451Z,2.30
2023-03-07T17:09:09.384Z,2.05
2023-03-07T17:11:39.226Z,2.90
2023-03-07T17:14:10.116Z,2.33
2023-03-07T17:16:44.764Z,2.90
2023-03-07T17:19:25.975Z,2.25
2023-03-07T17:21:57.692Z,2.25
2023-03-07T17:24:27.069Z,2.60
2023-03-07T17:26:57.950Z,3.08
2023-03-07T17:29:32.158Z,2.40
2023-03-07T17:32:01.400Z,2.28
2023-03-07T17:34:32.830Z,2.92
2023-03-07T17:37:03.602Z,2.70
2023-03-07T17:39:34.421Z,2.50
2023-03-07T17:42:04.258Z,2.47
2023-03-07T17:44:33.665Z,2.40
2023-03-07T17:47:02.627Z,2.70
2023-03-07T17:49:35.134Z,2.22
2023-03-07T17:52:08.882Z,1.92
2023-03-07T17:54:38.466Z,1.52
2023-03-07T17:57:07.925Z,2.45
2023-03-07T17:59:37.105Z,3.00
2023-03-07T18:02:07.238Z,2.50
2023-03-07T18:04:36.200Z,2.45
2023-03-07T18:07:07.431Z,2.38
2023-03-07T18:09:36.515Z,3.30
2023-03-07T18:12:05.804Z,2.90
2023-03-07T18:14:34.815Z,2.25
2023-03-07T18:17:03.963Z,2.22
2023-03-07T18:19:33.009Z,3.20
2023-03-07T18:22:02.019Z,3.03
2023-03-07T18:24:32.597Z,3.00
2023-03-07T18:27:03.328Z,2.53
2023-03-07T18:29:32.999Z,1.77
2023-03-07T18:32:01.991Z,2.55
2023-03-07T18:34:30.941Z,2.88
2023-03-07T18:37:00.103Z,1.98
2023-03-07T18:39:29.302Z,1.73
2023-03-07T18:41:59.824Z,2.22
2023-03-07T18:44:29.179Z,1.90
2023-03-07T18:46:58.198Z,3.55
2023-03-07T18:49:27.339Z,1.90
2023-03-07T18:51:56.480Z,2.83
2023-03-07T18:54:25.556Z,2.25
2023-03-07T18:56:54.510Z,1.95
2023-03-07T18:59:25.091Z,2.67
2023-03-07T19:01:54.341Z,3.55
2023-03-07T19:04:23.424Z,3.05
2023-03-07T19:06:52.397Z,2.95
2023-03-07T19:09:23.947Z,2.30
2023-03-07T19:11:53.444Z,2.70
2023-03-07T19:14:23.814Z,2.20
2023-03-07T19:16:52.846Z,1.92
2023-03-07T19:19:21.832Z,2.35
2023-03-07T19:21:50.822Z,2.40
2023-03-07T19:24:19.850Z,1.73
2023-03-07T19:26:50.650Z,1.80
2023-03-07T19:29:19.748Z,2.60
2023-03-07T19:31:50.317Z,2.65
2023-03-07T19:34:19.393Z,2.72
2023-03-07T19:36:48.401Z,2.75
2023-03-07T19:39:20.602Z,3.05
2023-03-07T19:41:49.782Z,3.85
2023-03-07T19:44:19.138Z,4.10
2023-03-07T19:46:49.570Z,4.47
2023-03-07T19:49:18.924Z,4.75
2023-03-07T19:51:48.027Z,3.78
2023-03-07T19:54:17.362Z,4.00
2023-03-07T19:56:46.322Z,3.28
2023-03-07T19:59:15.498Z,3.20
2023-03-07T20:01:44.587Z,4.50
2023-03-07T20:04:16.271Z,4.18
2023-03-07T20:06:45.919Z,3.72
2023-03-07T20:09:15.399Z,3.30
2023-03-07T20:11:44.639Z,3.92
2023-03-07T20:14:14.253Z,4.00
2023-03-07T20:16:43.216Z,4.07
2023-03-07T20:19:14.334Z,5.60
2023-03-07T20:21:49.798Z,4.57
2023-03-07T20:24:19.242Z,5.45
2023-03-07T20:26:48.357Z,4.72
2023-03-07T20:29:17.362Z,5.45
2023-03-07T20:31:48.858Z,5.75
2023-03-07T20:34:19.249Z,5.03
2023-03-07T20:36:48.186Z,4.82
2023-03-07T20:39:17.125Z,4.32
2023-03-07T20:41:46.351Z,4.63
2023-03-07T20:44:16.450Z,4.63
2023-03-07T20:46:45.516Z,6.15
2023-03-07T20:49:15.569Z,4.75
2023-03-07T20:51:46.140Z,6.25
2023-03-07T20:54:16.690Z,4.90
2023-03-07T20:56:46.615Z,5.53
2023-03-07T20:59:17.277Z,5.72
2023-03-07T21:01:46.632Z,6.60
2023-03-07T21:04:18.568Z,5.10
2023-03-07T21:06:49.979Z,5.90
2023-03-07T21:09:20.761Z,5.85
2023-03-07T21:11:51.031Z,5.00
2023-03-07T21:14:21.279Z,5.25
2023-03-07T21:16:50.317Z,4.25
2023-03-07T21:19:20.227Z,4.88
2023-03-07T21:21:50.672Z,3.92
2023-03-07T21:24:19.730Z,4.45
2023-03-07T21:26:48.737Z,5.07
2023-03-07T21:29:17.847Z,5.70
2023-03-07T21:31:46.881Z,4.57
2023-03-07T21:34:16.151Z,4.72
2023-03-07T21:36:45.960Z,5.40
2023-03-07T21:39:16.441Z,5.72
2023-03-07T21:41:45.477Z,4.90
2023-03-07T21:44:15.211Z,4.75
2023-03-07T21:46:45.256Z,5.20
2023-03-07T21:49:14.398Z,4.18
2023-03-07T21:51:44.380Z,4.07
2023-03-07T21:54:13.310Z,4.60
2023-03-07T21:56:43.655Z,4.82
2023-03-07T21:59:12.712Z,3.95
2023-03-07T22:01:41.631Z,4.80
2023-03-07T22:04:10.763Z,4.55
2023-03-07T22:06:39.760Z,3.78
2023-03-07T22:09:08.776Z,4.82
2023-03-07T22:11:37.893Z,4.53
2023-03-07T22:14:08.230Z,4.47
2023-03-07T22:16:37.307Z,4.45
2023-03-07T22:19:06.510Z,4.22
2023-03-07T22:21:35.711Z,4.38
2023-03-07T22:24:04.885Z,3.83
2023-03-07T22:26:34.471Z,3.83
2023-03-07T22:29:03.694Z,4.38
2023-03-07T22:31:34.072Z,3.40
2023-03-07T22:34:03.089Z,3.47
2023-03-07T22:36:32.108Z,2.70
2023-03-07T22:39:01.097Z,3.03
2023-03-07T22:41:30.329Z,3.28
2023-03-07T22:43:59.286Z,2.70
2023-03-07T22:46:28.388Z,3.47
2023-03-07T22:48:59.013Z,2.50
2023-03-07T22:51:28.704Z,2.75
2023-03-07T22:54:00.394Z,2.58
2023-03-07T22:56:29.979Z,2.28
2023-03-07T22:58:59.073Z,3.00
2023-03-07T23:01:29.804Z,2.20
2023-03-07T23:04:01.567Z,3.20
2023-03-07T23:06:32.313Z,2.72
2023-03-07T23:09:02.353Z,2.47
2023-03-07T23:11:32.963Z,2.55
2023-03-07T23:14:02.159Z,3.03
2023-03-07T23:16:32.561Z,2.95
2023-03-07T23:19:03.432Z,1.90
2023-03-07T23:21:33.696Z,2.95
2023-03-07T23:24:06.031Z,2.47
2023-03-07T23:26:36.954Z,2.15
2023-03-07T23:29:07.488Z,2.15
2023-03-07T23:31:39.830Z,2.28
2023-03-07T23:34:16.105Z,2.35
2023-03-07T23:36:45.614Z,2.75
2023-03-07T23:39:17.480Z,2.03
2023-03-07T23:41:46.601Z,2.50
2023-03-07T23:44:15.543Z,3.15
2023-03-07T23:46:44.524Z,1.88
2023-03-07T23:49:14.806Z,2.15
2023-03-07T23:51:44.698Z,2.65
2023-03-07T23:54:13.662Z,2.55
2023-03-07T23:56:42.662Z,1.52
2023-03-07T23:59:11.853Z,2.63
